createdAt,value
2018-12-11T00:00:50.033Z,985.123
2018-12-11T00:02:50.031Z,985.111
2018-12-11T00:04:50.248Z,985.111
2018-12-11T00:06:50.543Z,985.088
2018-12-11T00:08:50.466Z,985.095
2018-12-11T00:10:50.461Z,985.108
2018-12-11T00:12:50.552Z,985.091
2018-12-11T00:14:50.474Z,985.101
2018-12-11T00:16:49.696Z,985.089
2018-12-11T00:18:49.721Z,985.106
2018-12-11T00:20:49.695Z,985.089
2018-12-11T00:22:49.725Z,985.074
2018-12-11T00:24:49.819Z,985.057
2018-12-11T00:26:50.072Z,985.042
2018-12-11T00:28:50.078Z,985.039
2018-12-11T00:30:50.072Z,985.033
2018-12-11T00:32:49.959Z,985.027
2018-12-11T00:34:50.079Z,985.016
2018-12-11T00:36:50.266Z,985.008
2018-12-11T00:38:50.268Z,984.981
2018-12-11T00:40:50.248Z,984.988
2018-12-11T00:42:50.257Z,984.972
2018-12-11T00:44:50.266Z,984.986
2018-12-11T00:46:50.514Z,985.010
2018-12-11T00:48:50.464Z,985.064
2018-12-11T00:50:50.513Z,985.042
2018-12-11T00:52:50.435Z,985.002
2018-12-11T00:54:50.438Z,985.023
2018-12-11T00:56:49.698Z,985.029
2018-12-11T00:58:49.619Z,985.051
2018-12-11T01:00:49.632Z,985.079
2018-12-11T01:02:50.568Z,985.062
2018-12-11T01:04:49.877Z,985.083
2018-12-11T01:06:50.052Z,985.083
2018-12-11T01:08:50.066Z,985.100
2018-12-11T01:10:50.089Z,985.129
2018-12-11T01:12:50.116Z,985.114
2018-12-11T01:14:50.123Z,985.078
2018-12-11T01:16:50.273Z,985.078
2018-12-11T01:18:50.163Z,985.134
2018-12-11T01:20:50.148Z,985.153
2018-12-11T01:22:50.125Z,985.200
2018-12-11T01:24:50.127Z,985.209
2018-12-11T01:26:50.301Z,985.214
2018-12-11T01:28:50.209Z,985.208
2018-12-11T01:30:50.144Z,985.266
2018-12-11T01:32:50.097Z,985.237
2018-12-11T01:34:50.340Z,985.215
2018-12-11T01:36:50.551Z,985.196
2018-12-11T01:38:50.433Z,985.190
2018-12-11T01:40:50.471Z,985.165
2018-12-11T01:42:50.544Z,985.139
2018-12-11T01:44:50.454Z,985.148
2018-12-11T01:46:49.629Z,985.170
2018-12-11T01:48:49.647Z,985.155
2018-12-11T01:50:49.656Z,985.166
2018-12-11T01:52:49.669Z,985.191
2018-12-11T01:54:49.765Z,985.190
2018-12-11T01:56:49.945Z,985.220
2018-12-11T01:58:49.887Z,985.245
2018-12-11T02:00:49.870Z,985.254
2018-12-11T02:02:49.926Z,985.272
2018-12-11T02:04:50.211Z,985.298
2018-12-11T02:06:50.455Z,985.299
2018-12-11T02:08:50.358Z,985.294
2018-12-11T02:10:49.920Z,985.274
2018-12-11T02:12:50.031Z,985.285
2018-12-11T02:14:50.140Z,985.298
2018-12-11T02:16:50.543Z,985.300
2018-12-11T02:18:50.659Z,985.301
2018-12-11T02:20:49.763Z,985.295
2018-12-11T02:22:49.786Z,985.308
2018-12-11T02:24:49.810Z,985.275
2018-12-11T02:26:50.117Z,985.256
2018-12-11T02:28:50.091Z,985.290
2018-12-11T02:30:50.138Z,985.259
2018-12-11T02:32:50.150Z,985.249
2018-12-11T02:34:49.606Z,985.283
2018-12-11T02:36:49.871Z,985.328
2018-12-11T02:38:49.870Z,985.372
2018-12-11T02:40:49.854Z,985.378
2018-12-11T02:42:49.798Z,985.382
2018-12-11T02:44:49.861Z,985.370
2018-12-11T02:46:50.159Z,985.378
2018-12-11T02:48:50.176Z,985.396
2018-12-11T02:50:50.190Z,985.436
2018-12-11T02:52:50.092Z,985.423
2018-12-11T02:54:50.168Z,985.421
2018-12-11T02:56:50.487Z,985.418
2018-12-11T02:58:50.439Z,985.387
2018-12-11T03:00:50.513Z,985.393
2018-12-11T03:02:50.454Z,985.434
2018-12-11T03:04:49.848Z,985.387
2018-12-11T03:06:50.010Z,985.392
2018-12-11T03:08:50.344Z,985.348
2018-12-11T03:10:50.358Z,985.355
2018-12-11T03:12:50.281Z,985.410
2018-12-11T03:14:50.337Z,985.404
2018-12-11T03:16:50.547Z,985.432
2018-12-11T03:18:50.571Z,985.443
2018-12-11T03:20:50.547Z,985.464
2018-12-11T03:22:50.497Z,985.446
2018-12-11T03:24:50.605Z,985.470
2018-12-11T03:26:49.760Z,985.448
2018-12-11T03:28:49.861Z,985.459
2018-12-11T03:30:49.819Z,985.463
2018-12-11T03:32:49.967Z,985.507
2018-12-11T03:34:50.409Z,985.513
2018-12-11T03:36:49.693Z,985.554
2018-12-11T03:38:49.771Z,985.510
2018-12-11T03:40:49.810Z,985.521
2018-12-11T03:42:49.805Z,985.521
2018-12-11T03:44:49.888Z,985.558
2018-12-11T03:46:50.100Z,985.558
2018-12-11T03:48:50.033Z,985.565
2018-12-11T03:50:49.998Z,985.565
2018-12-11T03:52:50.014Z,985.616
2018-12-11T03:54:50.018Z,985.619
2018-12-11T03:56:50.211Z,985.603
2018-12-11T03:58:50.171Z,985.571
2018-12-11T04:00:50.286Z,985.534
2018-12-11T04:02:50.296Z,985.522
2018-12-11T04:04:49.595Z,985.530
2018-12-11T04:06:49.849Z,985.529
2018-12-11T04:08:49.809Z,985.571
2018-12-11T04:10:49.808Z,985.567
2018-12-11T04:12:49.918Z,985.574
2018-12-11T04:14:49.927Z,985.585
2018-12-11T04:16:50.050Z,985.591
2018-12-11T04:18:49.979Z,985.567
2018-12-11T04:20:49.972Z,985.556
2018-12-11T04:22:49.922Z,985.550
2018-12-11T04:24:49.842Z,985.545
2018-12-11T04:26:49.927Z,985.538
2018-12-11T04:28:49.954Z,985.531
2018-12-11T04:30:50.030Z,985.513
2018-12-11T04:32:50.084Z,985.523
2018-12-11T04:34:50.253Z,985.549
2018-12-11T04:36:50.514Z,985.538
2018-12-11T04:38:50.559Z,985.534
2018-12-11T04:40:50.526Z,985.527
2018-12-11T04:42:49.637Z,985.537
2018-12-11T04:44:49.799Z,985.568
2018-12-11T04:46:50.100Z,985.595
2018-12-11T04:48:50.003Z,985.618
2018-12-11T04:50:50.052Z,985.627
2018-12-11T04:52:50.075Z,985.630
2018-12-11T04:54:50.065Z,985.692
2018-12-11T04:56:50.344Z,985.698
2018-12-11T04:58:50.350Z,985.700
2018-12-11T05:00:50.357Z,985.719
2018-12-11T05:02:50.271Z,985.715
2018-12-11T05:04:49.636Z,985.719
2018-12-11T05:06:49.985Z,985.730
2018-12-11T05:08:49.968Z,985.719
2018-12-11T05:10:49.979Z,985.679
2018-12-11T05:12:49.947Z,985.651
2018-12-11T05:14:49.856Z,985.640
2018-12-11T05:16:49.979Z,985.629
2018-12-11T05:18:49.906Z,985.616
2018-12-11T05:20:49.875Z,985.637
2018-12-11T05:22:49.848Z,985.652
2018-12-11T05:24:49.879Z,985.695
2018-12-11T05:26:50.529Z,985.698
2018-12-11T05:28:50.508Z,985.682
2018-12-11T05:30:50.449Z,985.644
2018-12-11T05:32:50.533Z,985.638
2018-12-11T05:34:49.781Z,985.637
2018-12-11T05:36:49.947Z,985.646
2018-12-11T05:38:49.877Z,985.641
2018-12-11T05:40:49.900Z,985.646
2018-12-11T05:42:49.916Z,985.654
2018-12-11T05:44:49.871Z,985.639
2018-12-11T05:46:49.939Z,985.634
2018-12-11T05:48:49.908Z,985.643
2018-12-11T05:50:49.854Z,985.632
2018-12-11T05:52:49.836Z,985.644
2018-12-11T05:54:49.806Z,985.623
2018-12-11T05:56:50.035Z,985.662
2018-12-11T05:58:50.010Z,985.715
2018-12-11T06:00:49.999Z,985.697
2018-12-11T06:02:50.058Z,985.746
2018-12-11T06:04:50.353Z,985.775
2018-12-11T06:06:50.443Z,985.803
2018-12-11T06:08:50.429Z,985.814
2018-12-11T06:10:50.435Z,985.855
2018-12-11T06:12:50.370Z,985.832
2018-12-11T06:14:50.383Z,985.862
2018-12-11T06:16:49.659Z,985.861
2018-12-11T06:18:49.675Z,985.846
2018-12-11T06:20:49.686Z,985.827
2018-12-11T06:22:49.633Z,985.828
2018-12-11T06:24:49.624Z,985.826
2018-12-11T06:26:49.870Z,985.831
2018-12-11T06:28:49.869Z,985.864
2018-12-11T06:30:49.838Z,985.864
2018-12-11T06:32:49.862Z,985.860
2018-12-11T06:34:50.206Z,985.856
2018-12-11T06:36:50.199Z,985.793
2018-12-11T06:38:50.154Z,985.811
2018-12-11T06:40:50.149Z,985.793
2018-12-11T06:42:50.187Z,985.810
2018-12-11T06:44:50.188Z,985.804
2018-12-11T06:46:50.388Z,985.800
2018-12-11T06:48:49.911Z,985.823
2018-12-11T06:50:49.956Z,985.822
2018-12-11T06:52:49.901Z,985.813
2018-12-11T06:54:49.870Z,985.772
2018-12-11T06:56:50.150Z,985.745
2018-12-11T06:58:50.106Z,985.713
2018-12-11T07:00:50.090Z,985.713
2018-12-11T07:02:50.091Z,985.729
2018-12-11T07:04:50.313Z,985.715
2018-12-11T07:06:50.362Z,985.718
2018-12-11T07:08:50.434Z,985.766
2018-12-11T07:10:50.483Z,985.745
2018-12-11T07:12:50.535Z,985.750
2018-12-11T07:14:50.555Z,985.750
2018-12-11T07:16:49.736Z,985.753
2018-12-11T07:18:49.730Z,985.777
2018-12-11T07:20:49.708Z,985.804
2018-12-11T07:22:49.723Z,985.853
2018-12-11T07:24:49.744Z,985.894
2018-12-11T07:26:49.918Z,985.920
2018-12-11T07:28:49.852Z,985.941
2018-12-11T07:30:49.776Z,985.952
2018-12-11T07:32:49.746Z,985.940
2018-12-11T07:34:50.158Z,985.935
2018-12-11T07:36:50.399Z,985.961
2018-12-11T07:38:50.430Z,985.968
2018-12-11T07:40:50.427Z,985.977
2018-12-11T07:42:50.416Z,985.967
2018-12-11T07:44:50.436Z,985.936
2018-12-11T07:46:50.589Z,985.919
2018-12-11T07:48:50.600Z,985.879
2018-12-11T07:50:49.729Z,985.880
2018-12-11T07:52:49.774Z,985.907
2018-12-11T07:54:49.753Z,985.909
2018-12-11T07:56:49.975Z,985.922
2018-12-11T07:58:50.007Z,985.963
2018-12-11T08:00:49.921Z,985.971
2018-12-11T08:02:49.986Z,985.982
2018-12-11T08:04:50.403Z,986.000
2018-12-11T08:06:49.693Z,986.001
2018-12-11T08:08:49.707Z,986.042
2018-12-11T08:10:49.731Z,986.071
2018-12-11T08:12:49.782Z,986.077
2018-12-11T08:14:49.795Z,986.088
2018-12-11T08:16:50.017Z,986.118
2018-12-11T08:18:49.988Z,986.104
2018-12-11T08:20:49.885Z,986.102
2018-12-11T08:22:49.835Z,986.121
2018-12-11T08:24:49.767Z,986.152
2018-12-11T08:26:49.927Z,986.137
2018-12-11T08:28:49.965Z,986.139
2018-12-11T08:30:50.021Z,986.160
2018-12-11T08:32:50.022Z,986.178
2018-12-11T08:34:50.324Z,986.193
2018-12-11T08:36:50.397Z,986.193
2018-12-11T08:38:50.444Z,986.192
2018-12-11T08:40:50.372Z,986.197
2018-12-11T08:42:50.459Z,986.207
2018-12-11T08:44:51.677Z,986.229
2018-12-11T08:46:49.925Z,986.265
2018-12-11T08:48:49.887Z,986.263
2018-12-11T08:50:49.875Z,986.244
2018-12-11T08:52:49.844Z,986.271
2018-12-11T08:54:49.802Z,986.308
2018-12-11T08:56:50.029Z,986.325
2018-12-11T08:58:49.982Z,986.359
2018-12-11T09:00:49.938Z,986.367
2018-12-11T09:02:49.953Z,986.386
2018-12-11T09:04:50.166Z,986.430
2018-12-11T09:06:50.362Z,986.473
2018-12-11T09:08:50.351Z,986.502
2018-12-11T09:10:50.260Z,986.558
2018-12-11T09:12:50.270Z,986.584
2018-12-11T09:14:50.210Z,986.583
2018-12-11T09:16:50.407Z,986.597
2018-12-11T09:18:50.524Z,986.608
2018-12-11T09:20:50.509Z,986.617
2018-12-11T09:22:50.581Z,986.645
2018-12-11T09:24:50.504Z,986.649
2018-12-11T09:26:49.743Z,986.655
2018-12-11T09:28:49.723Z,986.665
2018-12-11T09:30:49.626Z,986.668
2018-12-11T09:32:49.728Z,986.683
2018-12-11T09:34:50.011Z,986.707
2018-12-11T09:36:50.093Z,986.720
2018-12-11T09:38:50.031Z,986.709
2018-12-11T09:40:49.937Z,986.748
2018-12-11T09:42:49.928Z,986.753
2018-12-11T09:44:49.880Z,986.729
2018-12-11T09:46:49.984Z,986.666
2018-12-11T09:48:50.041Z,986.636
2018-12-11T09:50:49.974Z,986.619
2018-12-11T09:52:50.012Z,986.534
2018-12-11T09:54:49.936Z,986.495
2018-12-11T09:56:50.038Z,986.487
2018-12-11T09:58:50.023Z,986.483
2018-12-11T10:00:49.958Z,986.468
2018-12-11T10:02:50.015Z,986.511
2018-12-11T10:04:50.290Z,986.529
2018-12-11T10:06:50.400Z,986.509
2018-12-11T10:08:50.418Z,986.526
2018-12-11T10:10:50.330Z,986.547
2018-12-11T10:12:50.406Z,986.567
2018-12-11T10:14:50.348Z,986.564
2018-12-11T10:16:50.547Z,986.546
2018-12-11T10:18:49.670Z,986.529
2018-12-11T10:20:50.741Z,986.487
2018-12-11T10:22:49.937Z,986.411
2018-12-11T10:24:49.956Z,986.397
2018-12-11T10:26:50.082Z,986.379
2018-12-11T10:28:50.134Z,986.429
2018-12-11T10:30:50.156Z,986.419
2018-12-11T10:32:50.201Z,986.420
2018-12-11T10:34:50.403Z,986.420
2018-12-11T10:36:49.792Z,986.421
2018-12-11T10:38:49.906Z,986.404
2018-12-11T10:40:49.814Z,986.400
2018-12-11T10:42:49.769Z,986.403
2018-12-11T10:44:49.897Z,986.403
2018-12-11T10:46:50.148Z,986.405
2018-12-11T10:48:50.274Z,986.398
2018-12-11T10:50:50.251Z,986.413
2018-12-11T10:52:50.216Z,986.417
2018-12-11T10:54:50.254Z,986.435
2018-12-11T10:56:50.353Z,986.434
2018-12-11T10:58:50.382Z,986.441
2018-12-11T11:00:50.306Z,986.410
2018-12-11T11:02:50.150Z,986.405
2018-12-11T11:04:50.597Z,986.394
2018-12-11T11:06:49.930Z,986.355
2018-12-11T11:08:49.871Z,986.343
2018-12-11T11:10:49.913Z,986.370
2018-12-11T11:12:49.968Z,986.347
2018-12-11T11:14:50.014Z,986.354
2018-12-11T11:16:50.315Z,986.354
2018-12-11T11:18:50.296Z,986.376
2018-12-11T11:20:50.425Z,986.362
2018-12-11T11:22:50.456Z,986.357
2018-12-11T11:24:50.363Z,986.351
2018-12-11T11:26:50.531Z,986.332
2018-12-11T11:28:50.553Z,986.351
2018-12-11T11:30:50.471Z,986.328
2018-12-11T11:32:50.554Z,986.279
2018-12-11T11:34:49.776Z,986.292
2018-12-11T11:36:50.030Z,986.301
2018-12-11T11:38:50.046Z,986.338
2018-12-11T11:40:49.994Z,986.348
2018-12-11T11:42:49.942Z,986.363
2018-12-11T11:44:51.082Z,986.377
2018-12-11T11:46:50.349Z,986.380
2018-12-11T11:48:50.285Z,986.381
2018-12-11T11:50:50.294Z,986.371
2018-12-11T11:52:50.257Z,986.365
2018-12-11T11:54:50.227Z,986.358
2018-12-11T11:56:50.373Z,986.331
2018-12-11T11:58:50.602Z,986.325
2018-12-11T12:00:50.582Z,986.325
2018-12-11T12:02:50.572Z,986.315
2018-12-11T12:04:49.985Z,986.321
2018-12-11T12:06:50.184Z,986.317
2018-12-11T12:08:50.146Z,986.320
2018-12-11T12:10:50.169Z,986.330
2018-12-11T12:12:50.098Z,986.307
2018-12-11T12:14:50.090Z,986.305
2018-12-11T12:16:50.229Z,986.303
2018-12-11T12:18:50.214Z,986.303
2018-12-11T12:20:50.219Z,986.314
2018-12-11T12:22:50.151Z,986.323
2018-12-11T12:24:50.225Z,986.313
2018-12-11T12:26:50.345Z,986.313
2018-12-11T12:28:50.310Z,986.237
2018-12-11T12:30:50.285Z,986.213
2018-12-11T12:32:50.238Z,986.207
2018-12-11T12:34:50.422Z,986.201
2018-12-11T12:36:50.589Z,986.197
2018-12-11T12:38:49.635Z,986.185
2018-12-11T12:40:50.559Z,986.184
2018-12-11T12:42:50.577Z,986.153
2018-12-11T12:44:49.627Z,986.149
2018-12-11T12:46:50.199Z,986.143
2018-12-11T12:48:50.125Z,986.147
2018-12-11T12:50:50.089Z,986.111
2018-12-11T12:52:50.097Z,986.112
2018-12-11T12:54:50.107Z,986.107
2018-12-11T12:56:50.204Z,986.124
2018-12-11T12:58:50.148Z,986.099
2018-12-11T13:00:50.461Z,986.089
2018-12-11T13:02:50.472Z,986.056
2018-12-11T13:04:50.224Z,986.031
2018-12-11T13:06:50.381Z,986.041
2018-12-11T13:08:50.502Z,986.057
2018-12-11T13:10:50.577Z,986.057
2018-12-11T13:12:49.621Z,986.078
2018-12-11T13:14:49.705Z,986.113
2018-12-11T13:16:49.905Z,986.123
2018-12-11T13:18:49.838Z,986.152
2018-12-11T13:20:49.872Z,986.152
2018-12-11T13:22:49.861Z,986.151
2018-12-11T13:24:49.806Z,986.153
2018-12-11T13:26:50.194Z,986.157
2018-12-11T13:28:50.195Z,986.154
2018-12-11T13:30:50.158Z,986.167
2018-12-11T13:32:50.119Z,986.180
2018-12-11T13:34:50.426Z,986.179
2018-12-11T13:36:49.838Z,986.189
2018-12-11T13:38:49.803Z,986.201
2018-12-11T13:40:49.900Z,986.209
2018-12-11T13:42:49.848Z,986.223
2018-12-11T13:44:49.778Z,986.205
2018-12-11T13:46:50.019Z,986.235
2018-12-11T13:48:49.966Z,986.250
2018-12-11T13:50:49.881Z,986.264
2018-12-11T13:52:49.946Z,986.304
2018-12-11T13:54:50.021Z,986.308
2018-12-11T13:56:50.108Z,986.354
2018-12-11T13:58:50.013Z,986.373
2018-12-11T14:00:49.948Z,986.391
2018-12-11T14:02:49.849Z,986.384
2018-12-11T14:04:50.088Z,986.389
2018-12-11T14:06:50.207Z,986.404
2018-12-11T14:08:50.175Z,986.394
2018-12-11T14:10:50.145Z,986.398
2018-12-11T14:12:50.074Z,986.402
2018-12-11T14:14:50.024Z,986.413
2018-12-11T14:16:50.229Z,986.425
2018-12-11T14:18:50.183Z,986.414
2018-12-11T14:20:50.125Z,986.412
2018-12-11T14:22:50.166Z,986.406
2018-12-11T14:24:50.085Z,986.416
2018-12-11T14:26:50.237Z,986.472
2018-12-11T14:28:50.179Z,986.493
2018-12-11T14:30:50.182Z,986.496
2018-12-11T14:32:50.169Z,986.490
2018-12-11T14:34:50.368Z,986.525
2018-12-11T14:36:50.479Z,986.543
2018-12-11T14:38:50.410Z,986.556
2018-12-11T14:40:50.357Z,986.540
2018-12-11T14:42:50.329Z,986.515
2018-12-11T14:44:50.289Z,986.483
2018-12-11T14:46:50.157Z,986.464
2018-12-11T14:48:50.151Z,986.463
2018-12-11T14:50:50.112Z,986.452
2018-12-11T14:52:50.154Z,986.452
2018-12-11T14:54:50.075Z,986.457
2018-12-11T14:56:50.204Z,986.441
2018-12-11T14:58:50.146Z,986.444
2018-12-11T15:00:50.094Z,986.451
2018-12-11T15:02:50.104Z,986.451
2018-12-11T15:04:50.449Z,986.431
2018-12-11T15:06:50.588Z,986.422
2018-12-11T15:08:49.675Z,986.419
2018-12-11T15:10:49.620Z,986.434
2018-12-11T15:12:49.657Z,986.405
2018-12-11T15:14:49.589Z,986.405
2018-12-11T15:16:49.798Z,986.391
2018-12-11T15:18:49.782Z,986.420
2018-12-11T15:20:49.739Z,986.429
2018-12-11T15:22:49.739Z,986.436
2018-12-11T15:24:49.753Z,986.471
2018-12-11T15:26:50.018Z,986.511
2018-12-11T15:28:49.991Z,986.526
2018-12-11T15:30:49.948Z,986.532
2018-12-11T15:32:49.978Z,986.556
2018-12-11T15:34:50.239Z,986.570
2018-12-11T15:36:50.375Z,986.579
2018-12-11T15:38:50.375Z,986.582
2018-12-11T15:40:50.358Z,986.569
2018-12-11T15:42:50.296Z,986.568
2018-12-11T15:44:50.272Z,986.555
2018-12-11T15:46:50.413Z,986.562
2018-12-11T15:48:50.287Z,986.562
2018-12-11T15:50:50.294Z,986.535
2018-12-11T15:52:50.199Z,986.502
2018-12-11T15:54:50.227Z,986.515
2018-12-11T15:56:50.501Z,986.511
2018-12-11T15:58:50.596Z,986.530
2018-12-11T16:00:50.557Z,986.534
2018-12-11T16:02:49.693Z,986.559
2018-12-11T16:04:50.042Z,986.553
2018-12-11T16:06:50.320Z,986.560
2018-12-11T16:08:50.347Z,986.587
2018-12-11T16:10:50.223Z,986.569
2018-12-11T16:12:50.212Z,986.566
2018-12-11T16:14:50.213Z,986.586
2018-12-11T16:16:50.320Z,986.581
2018-12-11T16:18:50.454Z,986.582
2018-12-11T16:20:50.376Z,986.592
2018-12-11T16:22:50.472Z,986.592
2018-12-11T16:24:50.494Z,986.621
2018-12-11T16:26:50.547Z,986.604
2018-12-11T16:28:50.561Z,986.628
2018-12-11T16:30:50.520Z,986.650
2018-12-11T16:32:49.609Z,986.647
2018-12-11T16:34:49.904Z,986.624
2018-12-11T16:36:50.039Z,986.608
2018-12-11T16:38:49.981Z,986.637
2018-12-11T16:40:49.900Z,986.635
2018-12-11T16:42:49.870Z,986.640
2018-12-11T16:44:49.834Z,986.647
2018-12-11T16:46:49.907Z,986.649
2018-12-11T16:48:49.961Z,986.682
2018-12-11T16:50:49.882Z,986.682
2018-12-11T16:52:49.838Z,986.696
2018-12-11T16:54:49.737Z,986.681
2018-12-11T16:56:50.164Z,986.672
2018-12-11T16:58:50.086Z,986.656
2018-12-11T17:00:50.080Z,986.652
2018-12-11T17:02:50.157Z,986.651
2018-12-11T17:04:50.461Z,986.637
2018-12-11T17:06:49.620Z,986.652
2018-12-11T17:08:49.626Z,986.675
2018-12-11T17:10:49.621Z,986.702
2018-12-11T17:12:49.626Z,986.726
2018-12-11T17:14:49.703Z,986.718
2018-12-11T17:16:49.904Z,986.716
2018-12-11T17:18:49.891Z,986.774
2018-12-11T17:20:49.882Z,986.801
2018-12-11T17:22:49.857Z,986.839
2018-12-11T17:24:49.859Z,986.867
2018-12-11T17:26:50.083Z,986.870
2018-12-11T17:28:50.085Z,986.874
2018-12-11T17:30:50.036Z,986.905
2018-12-11T17:32:50.031Z,986.941
2018-12-11T17:34:50.396Z,986.947
2018-12-11T17:36:49.645Z,986.946
2018-12-11T17:38:49.640Z,986.940
2018-12-11T17:40:49.592Z,986.956
2018-12-11T17:42:49.705Z,986.938
2018-12-11T17:44:49.648Z,986.945
2018-12-11T17:46:49.810Z,986.936
2018-12-11T17:48:49.879Z,986.953
2018-12-11T17:50:49.864Z,986.965
2018-12-11T17:52:49.876Z,986.957
2018-12-11T17:54:49.896Z,986.963
2018-12-11T17:56:50.019Z,986.947
2018-12-11T17:58:50.067Z,986.955
2018-12-11T18:00:50.056Z,986.970
2018-12-11T18:02:50.078Z,986.971
2018-12-11T18:04:50.428Z,986.989
2018-12-11T18:06:49.658Z,986.983
2018-12-11T18:08:49.663Z,986.957
2018-12-11T18:10:49.719Z,986.958
2018-12-11T18:12:49.768Z,986.958
2018-12-11T18:14:49.777Z,986.950
2018-12-11T18:16:49.917Z,986.966
2018-12-11T18:18:49.881Z,986.979
2018-12-11T18:20:49.875Z,987.014
2018-12-11T18:22:49.877Z,987.054
2018-12-11T18:24:49.853Z,987.068
2018-12-11T18:26:50.150Z,987.078
2018-12-11T18:28:50.099Z,987.103
2018-12-11T18:30:50.054Z,987.111
2018-12-11T18:32:50.005Z,987.117
2018-12-11T18:34:50.325Z,987.137
2018-12-11T18:36:50.564Z,987.166
2018-12-11T18:38:50.577Z,987.158
2018-12-11T18:40:50.596Z,987.175
2018-12-11T18:42:50.557Z,987.170
2018-12-11T18:44:49.605Z,987.182
2018-12-11T18:46:49.756Z,987.189
2018-12-11T18:48:49.748Z,987.190
2018-12-11T18:50:49.776Z,987.186
2018-12-11T18:52:49.875Z,987.181
2018-12-11T18:54:49.874Z,987.164
2018-12-11T18:56:50.101Z,987.153
2018-12-11T18:58:50.103Z,987.166
2018-12-11T19:00:50.049Z,987.147
2018-12-11T19:02:50.022Z,987.171
2018-12-11T19:04:50.367Z,987.178
2018-12-11T19:06:50.590Z,987.184
2018-12-11T19:08:50.557Z,987.193
2018-12-11T19:10:50.484Z,987.205
2018-12-11T19:12:49.618Z,987.205
2018-12-11T19:14:49.618Z,987.225
2018-12-11T19:16:49.786Z,987.227
2018-12-11T19:18:49.897Z,987.219
2018-12-11T19:20:49.883Z,987.214
2018-12-11T19:22:49.827Z,987.233
2018-12-11T19:24:49.863Z,987.224
2018-12-11T19:26:50.127Z,987.218
2018-12-11T19:28:50.124Z,987.214
2018-12-11T19:30:50.111Z,987.204
2018-12-11T19:32:50.097Z,987.180
2018-12-11T19:34:50.481Z,987.182
2018-12-11T19:36:49.688Z,987.159
2018-12-11T19:38:49.631Z,987.162
2018-12-11T19:40:49.665Z,987.159
2018-12-11T19:42:49.680Z,987.150
2018-12-11T19:44:49.646Z,987.143
2018-12-11T19:46:49.867Z,987.111
2018-12-11T19:48:49.867Z,987.105
2018-12-11T19:50:49.784Z,987.111
2018-12-11T19:52:49.783Z,987.112
2018-12-11T19:54:49.828Z,987.100
2018-12-11T19:56:49.952Z,987.090
2018-12-11T19:58:49.913Z,987.073
2018-12-11T20:00:49.903Z,987.082
2018-12-11T20:02:49.942Z,987.089
2018-12-11T20:04:50.166Z,987.098
2018-12-11T20:06:50.358Z,987.109
2018-12-11T20:08:50.344Z,987.129
2018-12-11T20:10:50.347Z,987.133
2018-12-11T20:12:50.378Z,987.133
2018-12-11T20:14:50.419Z,987.137
2018-12-11T20:16:49.644Z,987.140
2018-12-11T20:18:49.683Z,987.149
2018-12-11T20:20:49.750Z,987.159
2018-12-11T20:22:49.695Z,987.174
2018-12-11T20:24:49.772Z,987.186
2018-12-11T20:26:50.026Z,987.171
2018-12-11T20:28:49.963Z,987.169
2018-12-11T20:30:49.968Z,987.166
2018-12-11T20:32:49.933Z,987.184
2018-12-11T20:34:50.165Z,987.185
2018-12-11T20:36:50.322Z,987.182
2018-12-11T20:38:50.381Z,987.183
2018-12-11T20:40:50.359Z,987.160
2018-12-11T20:42:50.377Z,987.138
2018-12-11T20:44:50.351Z,987.114
2018-12-11T20:46:49.632Z,987.108
2018-12-11T20:48:49.620Z,987.087
2018-12-11T20:50:49.638Z,987.118
2018-12-11T20:52:50.576Z,987.155
2018-12-11T20:54:50.495Z,987.172
2018-12-11T20:56:49.779Z,987.179
2018-12-11T20:58:49.795Z,987.189
2018-12-11T21:00:49.963Z,987.197
2018-12-11T21:02:49.980Z,987.201
2018-12-11T21:04:50.262Z,987.201
2018-12-11T21:06:50.413Z,987.175
2018-12-11T21:08:50.376Z,987.169
2018-12-11T21:10:50.473Z,987.170
2018-12-11T21:12:50.440Z,987.161
2018-12-11T21:14:50.477Z,987.149
2018-12-11T21:16:49.620Z,987.137
2018-12-11T21:18:49.612Z,987.124
2018-12-11T21:20:50.583Z,987.124
2018-12-11T21:22:49.617Z,987.150
2018-12-11T21:24:49.727Z,987.131
2018-12-11T21:26:50.080Z,987.128
2018-12-11T21:28:50.052Z,987.142
2018-12-11T21:30:50.090Z,987.153
2018-12-11T21:32:50.074Z,987.163
2018-12-11T21:34:50.284Z,987.159
2018-12-11T21:36:50.471Z,987.169
2018-12-11T21:38:50.525Z,987.170
2018-12-11T21:40:50.420Z,987.177
2018-12-11T21:42:50.462Z,987.192
2018-12-11T21:44:50.499Z,987.178
2018-12-11T21:46:49.752Z,987.175
2018-12-11T21:48:49.732Z,987.175
2018-12-11T21:50:49.879Z,987.182
2018-12-11T21:52:49.805Z,987.183
2018-12-11T21:54:49.897Z,987.194
2018-12-11T21:56:50.177Z,987.190
2018-12-11T21:58:50.207Z,987.205
2018-12-11T22:00:50.173Z,987.199
2018-12-11T22:02:50.095Z,987.192
2018-12-11T22:04:50.436Z,987.227
2018-12-11T22:06:50.567Z,987.258
2018-12-11T22:08:50.585Z,987.243
2018-12-11T22:10:49.705Z,987.258
2018-12-11T22:12:49.734Z,987.258
2018-12-11T22:14:49.730Z,987.279
2018-12-11T22:16:49.898Z,987.274
2018-12-11T22:18:49.847Z,987.274
2018-12-11T22:20:49.804Z,987.294
2018-12-11T22:22:49.868Z,987.285
2018-12-11T22:24:49.973Z,987.309
2018-12-11T22:26:50.200Z,987.287
2018-12-11T22:28:50.248Z,987.291
2018-12-11T22:30:50.220Z,987.287
2018-12-11T22:32:50.165Z,987.265
2018-12-11T22:34:50.383Z,987.258
2018-12-11T22:36:49.614Z,987.204
2018-12-11T22:38:49.625Z,987.198
2018-12-11T22:40:49.621Z,987.206
2018-12-11T22:42:49.781Z,987.221
2018-12-11T22:44:49.744Z,987.227
2018-12-11T22:46:50.085Z,987.220
2018-12-11T22:48:50.037Z,987.220
2018-12-11T22:50:50.063Z,987.202
2018-12-11T22:52:50.086Z,987.175
2018-12-11T22:54:50.105Z,987.177
2018-12-11T22:56:50.316Z,987.197
2018-12-11T22:58:50.280Z,987.190
2018-12-11T23:00:50.204Z,987.170
2018-12-11T23:02:50.220Z,987.174
2018-12-11T23:04:50.427Z,987.145
2018-12-11T23:06:49.745Z,987.144
2018-12-11T23:08:49.856Z,987.173
2018-12-11T23:10:49.831Z,987.221
2018-12-11T23:12:49.849Z,987.221
2018-12-11T23:14:49.851Z,987.258
2018-12-11T23:16:49.945Z,987.261
2018-12-11T23:18:49.942Z,987.276
2018-12-11T23:20:49.883Z,987.284
2018-12-11T23:22:49.857Z,987.254
2018-12-11T23:24:49.891Z,987.254
2018-12-11T23:26:50.106Z,987.251
2018-12-11T23:28:50.172Z,987.269
2018-12-11T23:30:50.194Z,987.272
2018-12-11T23:32:50.203Z,987.272
2018-12-11T23:34:50.574Z,987.278
2018-12-11T23:36:49.789Z,987.256
2018-12-11T23:38:49.739Z,987.274
2018-12-11T23:40:49.763Z,987.274
2018-12-11T23:42:49.882Z,987.279
2018-12-11T23:44:49.913Z,987.272
2018-12-11T23:46:50.220Z,987.257
2018-12-11T23:48:50.180Z,987.252
2018-12-11T23:50:50.126Z,987.233
2018-12-11T23:52:50.148Z,987.257
2018-12-11T23:54:50.200Z,987.267
2018-12-11T23:56:50.338Z,987.238
2018-12-11T23:58:50.306Z,987.223
